sensor_id;sensor_type;location;lat;lon;timestamp;P1;durP1;ratioP1;P2;durP2;ratioP2
34960;SDS011;30789;52.030;7.110;2022-07-06T00:01:59;5.10;;;1.55;;
34960;SDS011;30789;52.030;7.110;2022-07-06T00:04:25;2.17;;;1.50;;
34960;SDS011;30789;52.030;7.110;2022-07-06T00:06:52;2.58;;;1.58;;
34960;SDS011;30789;52.030;7.110;2022-07-06T00:09:18;2.00;;;1.67;;
34960;SDS011;30789;52.030;7.110;2022-07-06T00:11:46;4.13;;;1.70;;
34960;SDS011;30789;52.030;7.110;2022-07-06T00:14:13;3.72;;;1.38;;
34960;SDS011;30789;52.030;7.110;2022-07-06T00:16:39;3.17;;;1.50;;
34960;SDS011;30789;52.030;7.110;2022-07-06T00:19:06;2.50;;;1.60;;
34960;SDS011;30789;52.030;7.110;2022-07-06T00:21:32;3.67;;;1.67;;
34960;SDS011;30789;52.030;7.110;2022-07-06T00:23:59;2.47;;;1.80;;
34960;SDS011;30789;52.030;7.110;2022-07-06T00:26:26;1.80;;;1.58;;
34960;SDS011;30789;52.030;7.110;2022-07-06T00:28:54;3.45;;;1.67;;
34960;SDS011;30789;52.030;7.110;2022-07-06T00:31:20;2.63;;;1.50;;
34960;SDS011;30789;52.030;7.110;2022-07-06T00:33:47;2.30;;;1.77;;
34960;SDS011;30789;52.030;7.110;2022-07-06T00:36:13;2.35;;;1.45;;
34960;SDS011;30789;52.030;7.110;2022-07-06T00:38:40;1.75;;;1.65;;
34960;SDS011;30789;52.030;7.110;2022-07-06T00:41:07;2.97;;;1.63;;
34960;SDS011;30789;52.030;7.110;2022-07-06T00:43:49;3.33;;;1.65;;
34960;SDS011;30789;52.030;7.110;2022-07-06T00:46:18;3.30;;;1.92;;
34960;SDS011;30789;52.030;7.110;2022-07-06T00:48:45;2.33;;;1.73;;
34960;SDS011;30789;52.030;7.110;2022-07-06T00:51:11;1.88;;;1.65;;
34960;SDS011;30789;52.030;7.110;2022-07-06T00:53:38;2.97;;;1.77;;
34960;SDS011;30789;52.030;7.110;2022-07-06T00:56:06;1.70;;;1.55;;
34960;SDS011;30789;52.030;7.110;2022-07-06T00:58:33;2.30;;;1.80;;
34960;SDS011;30789;52.030;7.110;2022-07-06T01:01:00;3.20;;;1.73;;
34960;SDS011;30789;52.030;7.110;2022-07-06T01:03:28;2.75;;;2.00;;
34960;SDS011;30789;52.030;7.110;2022-07-06T01:05:55;2.92;;;1.75;;
34960;SDS011;30789;52.030;7.110;2022-07-06T01:08:21;2.28;;;2.08;;
34960;SDS011;30789;52.030;7.110;2022-07-06T01:10:48;4.97;;;2.08;;
34960;SDS011;30789;52.030;7.110;2022-07-06T01:13:15;3.53;;;2.20;;
34960;SDS011;30789;52.030;7.110;2022-07-06T01:15:41;3.17;;;2.30;;
34960;SDS011;30789;52.030;7.110;2022-07-06T01:18:09;1.92;;;1.67;;
34960;SDS011;30789;52.030;7.110;2022-07-06T01:20:37;1.63;;;1.52;;
34960;SDS011;30789;52.030;7.110;2022-07-06T01:23:04;2.90;;;1.92;;
34960;SDS011;30789;52.030;7.110;2022-07-06T01:25:30;3.03;;;1.95;;
34960;SDS011;30789;52.030;7.110;2022-07-06T01:27:57;2.30;;;1.85;;
34960;SDS011;30789;52.030;7.110;2022-07-06T01:30:24;4.70;;;2.30;;
34960;SDS011;30789;52.030;7.110;2022-07-06T01:32:50;3.20;;;2.15;;
34960;SDS011;30789;52.030;7.110;2022-07-06T01:35:17;3.75;;;1.85;;
34960;SDS011;30789;52.030;7.110;2022-07-06T01:37:45;1.80;;;1.60;;
34960;SDS011;30789;52.030;7.110;2022-07-06T01:40:11;5.35;;;2.08;;
34960;SDS011;30789;52.030;7.110;2022-07-06T01:42:38;4.90;;;2.28;;
34960;SDS011;30789;52.030;7.110;2022-07-06T01:45:05;3.65;;;2.15;;
34960;SDS011;30789;52.030;7.110;2022-07-06T01:47:33;2.88;;;2.38;;
34960;SDS011;30789;52.030;7.110;2022-07-06T01:49:59;7.40;;;2.20;;
34960;SDS011;30789;52.030;7.110;2022-07-06T01:52:27;3.42;;;2.40;;
34960;SDS011;30789;52.030;7.110;2022-07-06T01:54:55;3.65;;;2.13;;
34960;SDS011;30789;52.030;7.110;2022-07-06T01:57:22;3.10;;;2.45;;
34960;SDS011;30789;52.030;7.110;2022-07-06T01:59:49;7.72;;;2.17;;
34960;SDS011;30789;52.030;7.110;2022-07-06T02:02:15;3.47;;;2.40;;
34960;SDS011;30789;52.030;7.110;2022-07-06T02:04:42;5.85;;;2.40;;
34960;SDS011;30789;52.030;7.110;2022-07-06T02:07:09;6.40;;;2.38;;
34960;SDS011;30789;52.030;7.110;2022-07-06T02:09:35;2.80;;;2.47;;
34960;SDS011;30789;52.030;7.110;2022-07-06T02:12:04;3.30;;;2.47;;
34960;SDS011;30789;52.030;7.110;2022-07-06T02:14:31;2.25;;;1.90;;
34960;SDS011;30789;52.030;7.110;2022-07-06T02:16:57;2.80;;;2.40;;
34960;SDS011;30789;52.030;7.110;2022-07-06T02:19:24;3.13;;;2.30;;
34960;SDS011;30789;52.030;7.110;2022-07-06T02:21:50;2.95;;;2.25;;
34960;SDS011;30789;52.030;7.110;2022-07-06T02:24:17;4.00;;;2.00;;
34960;SDS011;30789;52.030;7.110;2022-07-06T02:26:43;3.60;;;2.10;;
34960;SDS011;30789;52.030;7.110;2022-07-06T02:29:11;2.47;;;2.28;;
34960;SDS011;30789;52.030;7.110;2022-07-06T02:31:38;2.60;;;2.08;;
34960;SDS011;30789;52.030;7.110;2022-07-06T02:34:04;3.63;;;2.28;;
34960;SDS011;30789;52.030;7.110;2022-07-06T02:36:31;6.93;;;2.28;;
34960;SDS011;30789;52.030;7.110;2022-07-06T02:38:57;2.17;;;1.98;;
34960;SDS011;30789;52.030;7.110;2022-07-06T02:41:23;2.33;;;2.03;;
34960;SDS011;30789;52.030;7.110;2022-07-06T02:43:50;3.50;;;2.22;;
34960;SDS011;30789;52.030;7.110;2022-07-06T02:46:18;3.22;;;2.08;;
34960;SDS011;30789;52.030;7.110;2022-07-06T02:48:44;5.00;;;2.33;;
34960;SDS011;30789;52.030;7.110;2022-07-06T02:51:11;4.28;;;2.55;;
34960;SDS011;30789;52.030;7.110;2022-07-06T02:53:37;3.83;;;2.20;;
34960;SDS011;30789;52.030;7.110;2022-07-06T02:56:04;2.63;;;2.15;;
34960;SDS011;30789;52.030;7.110;2022-07-06T02:58:30;3.83;;;2.55;;
34960;SDS011;30789;52.030;7.110;2022-07-06T03:00:57;2.20;;;2.00;;
34960;SDS011;30789;52.030;7.110;2022-07-06T03:03:25;3.42;;;2.33;;
34960;SDS011;30789;52.030;7.110;2022-07-06T03:05:51;2.92;;;2.30;;
34960;SDS011;30789;52.030;7.110;2022-07-06T03:08:18;3.05;;;2.22;;
34960;SDS011;30789;52.030;7.110;2022-07-06T03:10:44;4.38;;;1.95;;
34960;SDS011;30789;52.030;7.110;2022-07-06T03:13:11;3.60;;;2.08;;
34960;SDS011;30789;52.030;7.110;2022-07-06T03:15:37;7.40;;;2.58;;
34960;SDS011;30789;52.030;7.110;2022-07-06T03:18:03;2.45;;;2.10;;
34960;SDS011;30789;52.030;7.110;2022-07-06T03:20:31;6.40;;;2.22;;
34960;SDS011;30789;52.030;7.110;2022-07-06T03:22:58;3.28;;;2.50;;
34960;SDS011;30789;52.030;7.110;2022-07-06T03:25:24;2.35;;;2.10;;
34960;SDS011;30789;52.030;7.110;2022-07-06T03:27:51;2.65;;;1.77;;
34960;SDS011;30789;52.030;7.110;2022-07-06T03:30:17;3.47;;;2.22;;
34960;SDS011;30789;52.030;7.110;2022-07-06T03:32:44;2.50;;;1.85;;
34960;SDS011;30789;52.030;7.110;2022-07-06T03:35:10;2.83;;;2.25;;
34960;SDS011;30789;52.030;7.110;2022-07-06T03:37:38;2.78;;;2.22;;
34960;SDS011;30789;52.030;7.110;2022-07-06T03:40:05;4.30;;;2.00;;
34960;SDS011;30789;52.030;7.110;2022-07-06T03:42:33;2.45;;;2.00;;
34960;SDS011;30789;52.030;7.110;2022-07-06T03:44:59;4.60;;;2.40;;
34960;SDS011;30789;52.030;7.110;2022-07-06T03:47:26;2.10;;;1.75;;
34960;SDS011;30789;52.030;7.110;2022-07-06T03:49:52;3.80;;;1.90;;
34960;SDS011;30789;52.030;7.110;2022-07-06T03:52:19;4.32;;;2.22;;
34960;SDS011;30789;52.030;7.110;2022-07-06T03:54:47;5.93;;;2.33;;
34960;SDS011;30789;52.030;7.110;2022-07-06T03:57:13;4.25;;;1.95;;
34960;SDS011;30789;52.030;7.110;2022-07-06T03:59:40;3.13;;;2.47;;
34960;SDS011;30789;52.030;7.110;2022-07-06T04:02:07;3.42;;;2.40;;
34960;SDS011;30789;52.030;7.110;2022-07-06T04:04:33;2.70;;;2.28;;
34960;SDS011;30789;52.030;7.110;2022-07-06T04:07:00;3.42;;;2.00;;
34960;SDS011;30789;52.030;7.110;2022-07-06T04:09:26;4.45;;;2.20;;
34960;SDS011;30789;52.030;7.110;2022-07-06T04:11:54;3.50;;;2.15;;
34960;SDS011;30789;52.030;7.110;2022-07-06T04:14:21;4.40;;;2.38;;
34960;SDS011;30789;52.030;7.110;2022-07-06T04:16:47;2.92;;;2.10;;
34960;SDS011;30789;52.030;7.110;2022-07-06T04:19:14;3.67;;;1.98;;
34960;SDS011;30789;52.030;7.110;2022-07-06T04:21:40;2.78;;;2.15;;
34960;SDS011;30789;52.030;7.110;2022-07-06T04:24:07;3.80;;;2.20;;
34960;SDS011;30789;52.030;7.110;2022-07-06T04:26:33;3.97;;;1.80;;
34960;SDS011;30789;52.030;7.110;2022-07-06T04:29:01;4.70;;;2.03;;
34960;SDS011;30789;52.030;7.110;2022-07-06T04:31:28;2.15;;;1.58;;
34960;SDS011;30789;52.030;7.110;2022-07-06T04:33:55;2.38;;;1.67;;
34960;SDS011;30789;52.030;7.110;2022-07-06T04:36:21;2.80;;;1.95;;
34960;SDS011;30789;52.030;7.110;2022-07-06T04:38:48;2.63;;;2.00;;
34960;SDS011;30789;52.030;7.110;2022-07-06T04:41:14;2.33;;;1.80;;
34960;SDS011;30789;52.030;7.110;2022-07-06T04:43:41;7.40;;;1.70;;
34960;SDS011;30789;52.030;7.110;2022-07-06T04:46:10;2.35;;;1.67;;
34960;SDS011;30789;52.030;7.110;2022-07-06T04:48:36;1.85;;;1.55;;
34960;SDS011;30789;52.030;7.110;2022-07-06T04:51:04;3.90;;;1.67;;
34960;SDS011;30789;52.030;7.110;2022-07-06T04:53:30;1.85;;;1.42;;
34960;SDS011;30789;52.030;7.110;2022-07-06T04:55:57;3.63;;;1.73;;
34960;SDS011;30789;52.030;7.110;2022-07-06T04:58:24;3.22;;;1.67;;
34960;SDS011;30789;52.030;7.110;2022-07-06T05:00:50;3.55;;;1.60;;
34960;SDS011;30789;52.030;7.110;2022-07-06T05:03:18;3.28;;;1.77;;
34960;SDS011;30789;52.030;7.110;2022-07-06T05:05:44;4.70;;;1.48;;
34960;SDS011;30789;52.030;7.110;2022-07-06T05:08:11;2.85;;;1.60;;
34960;SDS011;30789;52.030;7.110;2022-07-06T05:10:37;2.72;;;1.50;;
34960;SDS011;30789;52.030;7.110;2022-07-06T05:13:04;5.72;;;1.70;;
34960;SDS011;30789;52.030;7.110;2022-07-06T05:15:30;1.55;;;1.45;;
34960;SDS011;30789;52.030;7.110;2022-07-06T05:17:57;1.55;;;1.27;;
34960;SDS011;30789;52.030;7.110;2022-07-06T05:20:25;3.85;;;1.80;;
34960;SDS011;30789;52.030;7.110;2022-07-06T05:22:51;2.65;;;1.70;;
34960;SDS011;30789;52.030;7.110;2022-07-06T05:25:18;3.65;;;1.17;;
34960;SDS011;30789;52.030;7.110;2022-07-06T05:27:45;3.50;;;1.75;;
34960;SDS011;30789;52.030;7.110;2022-07-06T05:30:11;3.13;;;1.45;;
34960;SDS011;30789;52.030;7.110;2022-07-06T05:32:38;4.65;;;1.52;;
34960;SDS011;30789;52.030;7.110;2022-07-06T05:35:05;1.33;;;1.20;;
34960;SDS011;30789;52.030;7.110;2022-07-06T05:37:34;3.53;;;1.70;;
34960;SDS011;30789;52.030;7.110;2022-07-06T05:40:00;2.58;;;1.42;;
34960;SDS011;30789;52.030;7.110;2022-07-06T05:42:27;3.13;;;1.25;;
34960;SDS011;30789;52.030;7.110;2022-07-06T05:44:54;1.73;;;1.30;;
34960;SDS011;30789;52.030;7.110;2022-07-06T05:47:21;4.40;;;1.60;;
34960;SDS011;30789;52.030;7.110;2022-07-06T05:50:06;3.05;;;1.40;;
34960;SDS011;30789;52.030;7.110;2022-07-06T05:52:40;3.03;;;1.45;;
34960;SDS011;30789;52.030;7.110;2022-07-06T05:55:08;2.78;;;1.20;;
34960;SDS011;30789;52.030;7.110;2022-07-06T05:57:35;2.78;;;1.35;;
34960;SDS011;30789;52.030;7.110;2022-07-06T06:00:02;1.33;;;0.90;;
34960;SDS011;30789;52.030;7.110;2022-07-06T06:02:36;3.05;;;1.23;;
34960;SDS011;30789;52.030;7.110;2022-07-06T06:05:03;4.07;;;1.38;;
34960;SDS011;30789;52.030;7.110;2022-07-06T06:07:30;5.80;;;1.50;;
34960;SDS011;30789;52.030;7.110;2022-07-06T06:09:58;2.17;;;1.20;;
34960;SDS011;30789;52.030;7.110;2022-07-06T06:12:24;2.65;;;1.33;;
34960;SDS011;30789;52.030;7.110;2022-07-06T06:14:51;2.90;;;1.17;;
34960;SDS011;30789;52.030;7.110;2022-07-06T06:17:17;3.28;;;1.20;;
34960;SDS011;30789;52.030;7.110;2022-07-06T06:19:44;2.97;;;1.10;;
34960;SDS011;30789;52.030;7.110;2022-07-06T06:22:10;3.45;;;1.40;;
34960;SDS011;30789;52.030;7.110;2022-07-06T06:24:37;5.28;;;1.15;;
34960;SDS011;30789;52.030;7.110;2022-07-06T06:27:04;2.05;;;1.13;;
34960;SDS011;30789;52.030;7.110;2022-07-06T06:29:31;3.05;;;1.17;;
34960;SDS011;30789;52.030;7.110;2022-07-06T06:31:58;3.17;;;1.10;;
34960;SDS011;30789;52.030;7.110;2022-07-06T06:34:25;2.20;;;1.15;;
34960;SDS011;30789;52.030;7.110;2022-07-06T06:36:51;1.85;;;1.00;;
34960;SDS011;30789;52.030;7.110;2022-07-06T06:39:18;3.20;;;0.93;;
34960;SDS011;30789;52.030;7.110;2022-07-06T06:41:44;2.33;;;0.80;;
34960;SDS011;30789;52.030;7.110;2022-07-06T06:44:12;3.45;;;1.15;;
34960;SDS011;30789;52.030;7.110;2022-07-06T06:46:39;1.67;;;1.20;;
34960;SDS011;30789;52.030;7.110;2022-07-06T06:49:06;3.75;;;0.90;;
34960;SDS011;30789;52.030;7.110;2022-07-06T06:51:33;4.03;;;1.33;;
34960;SDS011;30789;52.030;7.110;2022-07-06T06:53:59;1.35;;;0.90;;
34960;SDS011;30789;52.030;7.110;2022-07-06T06:56:26;5.57;;;0.90;;
34960;SDS011;30789;52.030;7.110;2022-07-06T06:58:52;2.90;;;1.20;;
34960;SDS011;30789;52.030;7.110;2022-07-06T07:01:20;4.43;;;1.33;;
34960;SDS011;30789;52.030;7.110;2022-07-06T07:03:47;2.55;;;1.20;;
34960;SDS011;30789;52.030;7.110;2022-07-06T07:06:14;2.97;;;1.17;;
34960;SDS011;30789;52.030;7.110;2022-07-06T07:08:40;1.63;;;1.13;;
34960;SDS011;30789;52.030;7.110;2022-07-06T07:11:07;2.45;;;1.00;;
34960;SDS011;30789;52.030;7.110;2022-07-06T07:13:33;2.33;;;0.70;;
34960;SDS011;30789;52.030;7.110;2022-07-06T07:16:00;5.15;;;1.10;;
34960;SDS011;30789;52.030;7.110;2022-07-06T07:18:28;4.22;;;1.02;;
34960;SDS011;30789;52.030;7.110;2022-07-06T07:20:54;1.58;;;0.70;;
34960;SDS011;30789;52.030;7.110;2022-07-06T07:23:21;1.50;;;0.70;;
34960;SDS011;30789;52.030;7.110;2022-07-06T07:25:47;4.85;;;0.70;;
34960;SDS011;30789;52.030;7.110;2022-07-06T07:28:14;3.55;;;0.80;;
34960;SDS011;30789;52.030;7.110;2022-07-06T07:30:40;1.42;;;0.80;;
34960;SDS011;30789;52.030;7.110;2022-07-06T07:33:07;2.92;;;0.50;;
34960;SDS011;30789;52.030;7.110;2022-07-06T07:35:35;0.65;;;0.50;;
34960;SDS011;30789;52.030;7.110;2022-07-06T07:38:01;2.70;;;0.68;;
34960;SDS011;30789;52.030;7.110;2022-07-06T07:40:28;1.85;;;0.80;;
34960;SDS011;30789;52.030;7.110;2022-07-06T07:42:54;1.50;;;0.80;;
34960;SDS011;30789;52.030;7.110;2022-07-06T07:45:21;0.93;;;0.47;;
34960;SDS011;30789;52.030;7.110;2022-07-06T07:47:48;1.50;;;0.60;;
34960;SDS011;30789;52.030;7.110;2022-07-06T07:50:14;1.23;;;0.65;;
34960;SDS011;30789;52.030;7.110;2022-07-06T07:52:42;1.38;;;0.55;;
34960;SDS011;30789;52.030;7.110;2022-07-06T07:55:09;1.25;;;0.43;;
34960;SDS011;30789;52.030;7.110;2022-07-06T07:57:36;0.68;;;0.40;;
34960;SDS011;30789;52.030;7.110;2022-07-06T08:00:02;0.80;;;0.60;;
34960;SDS011;30789;52.030;7.110;2022-07-06T08:02:30;1.88;;;0.60;;
34960;SDS011;30789;52.030;7.110;2022-07-06T08:04:56;3.15;;;0.45;;
34960;SDS011;30789;52.030;7.110;2022-07-06T08:07:23;4.90;;;0.60;;
34960;SDS011;30789;52.030;7.110;2022-07-06T08:09:50;1.13;;;0.70;;
34960;SDS011;30789;52.030;7.110;2022-07-06T08:12:17;2.25;;;0.50;;
34960;SDS011;30789;52.030;7.110;2022-07-06T08:14:43;5.57;;;0.60;;
34960;SDS011;30789;52.030;7.110;2022-07-06T08:17:10;1.35;;;0.60;;
34960;SDS011;30789;52.030;7.110;2022-07-06T08:19:36;0.75;;;0.30;;
34960;SDS011;30789;52.030;7.110;2022-07-06T08:22:03;0.88;;;0.32;;
34960;SDS011;30789;52.030;7.110;2022-07-06T08:24:32;1.23;;;0.50;;
34960;SDS011;30789;52.030;7.110;2022-07-06T08:27:00;3.22;;;0.63;;
34960;SDS011;30789;52.030;7.110;2022-07-06T08:29:28;1.92;;;0.60;;
34960;SDS011;30789;52.030;7.110;2022-07-06T08:31:54;3.58;;;0.88;;
34960;SDS011;30789;52.030;7.110;2022-07-06T08:34:21;3.85;;;0.45;;
34960;SDS011;30789;52.030;7.110;2022-07-06T08:36:48;1.65;;;0.50;;
34960;SDS011;30789;52.030;7.110;2022-07-06T08:39:15;3.67;;;0.60;;
34960;SDS011;30789;52.030;7.110;2022-07-06T08:41:42;2.13;;;0.65;;
34960;SDS011;30789;52.030;7.110;2022-07-06T08:44:13;2.03;;;0.50;;
34960;SDS011;30789;52.030;7.110;2022-07-06T08:46:41;3.50;;;0.68;;
34960;SDS011;30789;52.030;7.110;2022-07-06T08:49:08;1.70;;;0.63;;
34960;SDS011;30789;52.030;7.110;2022-07-06T08:51:38;4.38;;;0.60;;
34960;SDS011;30789;52.030;7.110;2022-07-06T08:54:06;2.85;;;0.60;;
34960;SDS011;30789;52.030;7.110;2022-07-06T08:56:33;0.55;;;0.40;;
34960;SDS011;30789;52.030;7.110;2022-07-06T08:59:00;1.33;;;0.40;;
34960;SDS011;30789;52.030;7.110;2022-07-06T09:01:28;2.83;;;0.70;;
34960;SDS011;30789;52.030;7.110;2022-07-06T09:03:55;1.02;;;0.32;;
34960;SDS011;30789;52.030;7.110;2022-07-06T09:06:23;5.50;;;0.50;;
34960;SDS011;30789;52.030;7.110;2022-07-06T09:08:51;1.25;;;0.50;;
34960;SDS011;30789;52.030;7.110;2022-07-06T09:11:19;1.30;;;0.47;;
34960;SDS011;30789;52.030;7.110;2022-07-06T09:13:47;4.78;;;0.35;;
34960;SDS011;30789;52.030;7.110;2022-07-06T09:16:14;0.45;;;0.40;;
34960;SDS011;30789;52.030;7.110;2022-07-06T09:18:44;2.45;;;0.47;;
34960;SDS011;30789;52.030;7.110;2022-07-06T09:21:11;2.90;;;0.40;;
34960;SDS011;30789;52.030;7.110;2022-07-06T09:23:38;1.42;;;0.40;;
34960;SDS011;30789;52.030;7.110;2022-07-06T09:26:05;0.75;;;0.35;;
34960;SDS011;30789;52.030;7.110;2022-07-06T09:28:41;1.42;;;0.68;;
34960;SDS011;30789;52.030;7.110;2022-07-06T09:31:08;1.08;;;0.47;;
34960;SDS011;30789;52.030;7.110;2022-07-06T09:33:36;0.77;;;0.40;;
34960;SDS011;30789;52.030;7.110;2022-07-06T09:36:04;2.35;;;0.50;;
34960;SDS011;30789;52.030;7.110;2022-07-06T09:38:31;1.88;;;0.60;;
34960;SDS011;30789;52.030;7.110;2022-07-06T09:40:58;1.58;;;0.60;;
34960;SDS011;30789;52.030;7.110;2022-07-06T09:43:27;2.67;;;0.57;;
34960;SDS011;30789;52.030;7.110;2022-07-06T09:45:55;2.15;;;0.50;;
34960;SDS011;30789;52.030;7.110;2022-07-06T09:48:23;2.25;;;0.50;;
34960;SDS011;30789;52.030;7.110;2022-07-06T09:50:51;1.02;;;0.40;;
34960;SDS011;30789;52.030;7.110;2022-07-06T09:53:21;0.82;;;0.40;;
34960;SDS011;30789;52.030;7.110;2022-07-06T09:55:50;1.05;;;0.30;;
34960;SDS011;30789;52.030;7.110;2022-07-06T09:58:17;0.47;;;0.40;;
34960;SDS011;30789;52.030;7.110;2022-07-06T10:00:46;1.48;;;0.68;;
34960;SDS011;30789;52.030;7.110;2022-07-06T10:03:13;0.77;;;0.40;;
34960;SDS011;30789;52.030;7.110;2022-07-06T10:05:41;1.75;;;0.40;;
34960;SDS011;30789;52.030;7.110;2022-07-06T10:08:11;0.90;;;0.30;;
34960;SDS011;30789;52.030;7.110;2022-07-06T10:10:40;1.75;;;0.25;;
34960;SDS011;30789;52.030;7.110;2022-07-06T10:13:08;1.48;;;0.30;;
34960;SDS011;30789;52.030;7.110;2022-07-06T10:15:37;2.25;;;0.40;;
34960;SDS011;30789;52.030;7.110;2022-07-06T10:18:05;0.63;;;0.28;;
34960;SDS011;30789;52.030;7.110;2022-07-06T10:20:34;1.90;;;0.20;;
34960;SDS011;30789;52.030;7.110;2022-07-06T10:23:03;1.65;;;0.40;;
34960;SDS011;30789;52.030;7.110;2022-07-06T10:25:31;0.40;;;0.10;;
34960;SDS011;30789;52.030;7.110;2022-07-06T10:28:00;0.73;;;0.17;;
34960;SDS011;30789;52.030;7.110;2022-07-06T10:30:27;0.80;;;0.20;;
34960;SDS011;30789;52.030;7.110;2022-07-06T10:32:55;0.80;;;0.20;;
34960;SDS011;30789;52.030;7.110;2022-07-06T10:35:24;1.15;;;0.22;;
34960;SDS011;30789;52.030;7.110;2022-07-06T10:38:02;1.27;;;0.20;;
34960;SDS011;30789;52.030;7.110;2022-07-06T10:40:31;0.85;;;0.35;;
34960;SDS011;30789;52.030;7.110;2022-07-06T10:43:17;0.38;;;0.20;;
34960;SDS011;30789;52.030;7.110;2022-07-06T10:45:50;1.25;;;0.30;;
34960;SDS011;30789;52.030;7.110;2022-07-06T10:48:19;2.70;;;0.32;;
34960;SDS011;30789;52.030;7.110;2022-07-06T10:50:48;1.25;;;0.30;;
34960;SDS011;30789;52.030;7.110;2022-07-06T10:53:16;1.45;;;0.20;;
34960;SDS011;30789;52.030;7.110;2022-07-06T10:55:45;2.15;;;0.40;;
34960;SDS011;30789;52.030;7.110;2022-07-06T10:58:12;1.55;;;0.30;;
34960;SDS011;30789;52.030;7.110;2022-07-06T11:00:50;1.10;;;0.10;;
34960;SDS011;30789;52.030;7.110;2022-07-06T11:03:34;2.20;;;0.40;;
34960;SDS011;30789;52.030;7.110;2022-07-06T11:06:04;1.75;;;0.50;;
34960;SDS011;30789;52.030;7.110;2022-07-06T11:08:46;1.30;;;0.30;;
34960;SDS011;30789;52.030;7.110;2022-07-06T11:11:14;0.52;;;0.10;;
34960;SDS011;30789;52.030;7.110;2022-07-06T11:16:29;0.85;;;0.20;;
34960;SDS011;30789;52.030;7.110;2022-07-06T11:19:00;2.20;;;0.32;;
34960;SDS011;30789;52.030;7.110;2022-07-06T11:21:44;2.05;;;0.40;;
34960;SDS011;30789;52.030;7.110;2022-07-06T11:24:12;0.30;;;0.20;;
34960;SDS011;30789;52.030;7.110;2022-07-06T11:26:40;2.97;;;0.17;;
34960;SDS011;30789;52.030;7.110;2022-07-06T11:29:09;0.70;;;0.38;;
34960;SDS011;30789;52.030;7.110;2022-07-06T11:31:38;1.50;;;0.20;;
34960;SDS011;30789;52.030;7.110;2022-07-06T11:34:06;1.35;;;0.28;;
34960;SDS011;30789;52.030;7.110;2022-07-06T11:36:34;0.30;;;0.20;;
34960;SDS011;30789;52.030;7.110;2022-07-06T11:39:01;3.22;;;0.68;;
34960;SDS011;30789;52.030;7.110;2022-07-06T11:41:30;2.53;;;0.40;;
34960;SDS011;30789;52.030;7.110;2022-07-06T11:43:57;2.55;;;0.30;;
34960;SDS011;30789;52.030;7.110;2022-07-06T11:46:24;0.88;;;0.20;;
34960;SDS011;30789;52.030;7.110;2022-07-06T11:48:54;0.75;;;0.28;;
34960;SDS011;30789;52.030;7.110;2022-07-06T11:51:22;1.23;;;0.30;;
34960;SDS011;30789;52.030;7.110;2022-07-06T11:53:50;0.55;;;0.22;;
34960;SDS011;30789;52.030;7.110;2022-07-06T11:56:18;0.40;;;0.20;;
34960;SDS011;30789;52.030;7.110;2022-07-06T11:58:46;1.45;;;0.50;;
34960;SDS011;30789;52.030;7.110;2022-07-06T12:01:15;2.08;;;0.28;;
34960;SDS011;30789;52.030;7.110;2022-07-06T12:03:42;0.82;;;0.20;;
34960;SDS011;30789;52.030;7.110;2022-07-06T12:06:14;2.58;;;0.30;;
34960;SDS011;30789;52.030;7.110;2022-07-06T12:08:43;0.88;;;0.22;;
34960;SDS011;30789;52.030;7.110;2022-07-06T12:11:16;1.00;;;0.40;;
34960;SDS011;30789;52.030;7.110;2022-07-06T12:13:45;2.65;;;0.40;;
34960;SDS011;30789;52.030;7.110;2022-07-06T12:16:11;0.47;;;0.20;;
34960;SDS011;30789;52.030;7.110;2022-07-06T12:18:40;0.77;;;0.28;;
34960;SDS011;30789;52.030;7.110;2022-07-06T12:21:07;0.50;;;0.40;;
34960;SDS011;30789;52.030;7.110;2022-07-06T12:23:42;0.80;;;0.40;;
34960;SDS011;30789;52.030;7.110;2022-07-06T12:26:10;0.57;;;0.20;;
34960;SDS011;30789;52.030;7.110;2022-07-06T12:28:37;0.47;;;0.10;;
34960;SDS011;30789;52.030;7.110;2022-07-06T12:31:04;0.95;;;0.20;;
34960;SDS011;30789;52.030;7.110;2022-07-06T12:33:31;0.45;;;0.15;;
34960;SDS011;30789;52.030;7.110;2022-07-06T12:36:07;1.58;;;0.20;;
34960;SDS011;30789;52.030;7.110;2022-07-06T12:38:35;0.35;;;0.20;;
34960;SDS011;30789;52.030;7.110;2022-07-06T12:41:10;0.98;;;0.20;;
34960;SDS011;30789;52.030;7.110;2022-07-06T12:43:38;1.13;;;0.30;;
34960;SDS011;30789;52.030;7.110;2022-07-06T12:48:55;2.10;;;0.50;;
34960;SDS011;30789;52.030;7.110;2022-07-06T12:51:23;3.97;;;0.43;;
34960;SDS011;30789;52.030;7.110;2022-07-06T12:53:49;1.10;;;0.30;;
34960;SDS011;30789;52.030;7.110;2022-07-06T12:56:18;0.32;;;0.28;;
34960;SDS011;30789;52.030;7.110;2022-07-06T12:58:58;0.57;;;0.20;;
34960;SDS011;30789;52.030;7.110;2022-07-06T13:01:26;1.23;;;0.17;;
34960;SDS011;30789;52.030;7.110;2022-07-06T13:03:53;1.27;;;0.30;;
34960;SDS011;30789;52.030;7.110;2022-07-06T13:06:28;3.10;;;0.20;;
34960;SDS011;30789;52.030;7.110;2022-07-06T13:08:56;0.38;;;0.22;;
34960;SDS011;30789;52.030;7.110;2022-07-06T13:11:24;0.50;;;0.22;;
34960;SDS011;30789;52.030;7.110;2022-07-06T13:13:51;1.70;;;0.55;;
34960;SDS011;30789;52.030;7.110;2022-07-06T13:16:17;0.98;;;0.20;;
34960;SDS011;30789;52.030;7.110;2022-07-06T13:18:44;1.13;;;0.22;;
34960;SDS011;30789;52.030;7.110;2022-07-06T13:21:10;1.75;;;0.10;;
34960;SDS011;30789;52.030;7.110;2022-07-06T13:23:37;0.38;;;0.10;;
34960;SDS011;30789;52.030;7.110;2022-07-06T13:26:03;0.90;;;0.30;;
34960;SDS011;30789;52.030;7.110;2022-07-06T13:28:31;0.35;;;0.15;;
34960;SDS011;30789;52.030;7.110;2022-07-06T13:30:58;2.72;;;0.28;;
34960;SDS011;30789;52.030;7.110;2022-07-06T13:33:24;0.90;;;0.20;;
34960;SDS011;30789;52.030;7.110;2022-07-06T13:35:51;2.50;;;0.30;;
34960;SDS011;30789;52.030;7.110;2022-07-06T13:38:18;1.25;;;0.20;;
34960;SDS011;30789;52.030;7.110;2022-07-06T13:40:44;0.10;;;0.10;;
34960;SDS011;30789;52.030;7.110;2022-07-06T13:43:10;1.65;;;0.40;;
34960;SDS011;30789;52.030;7.110;2022-07-06T13:45:38;0.50;;;0.15;;
34960;SDS011;30789;52.030;7.110;2022-07-06T13:48:05;0.70;;;0.38;;
34960;SDS011;30789;52.030;7.110;2022-07-06T13:50:32;0.70;;;0.20;;
34960;SDS011;30789;52.030;7.110;2022-07-06T13:52:58;0.20;;;0.10;;
34960;SDS011;30789;52.030;7.110;2022-07-06T13:55:25;0.65;;;0.17;;
34960;SDS011;30789;52.030;7.110;2022-07-06T13:57:51;0.38;;;0.15;;
34960;SDS011;30789;52.030;7.110;2022-07-06T14:00:18;0.45;;;0.28;;
34960;SDS011;30789;52.030;7.110;2022-07-06T14:02:46;0.30;;;0.20;;
34960;SDS011;30789;52.030;7.110;2022-07-06T14:05:13;0.88;;;0.20;;
34960;SDS011;30789;52.030;7.110;2022-07-06T14:07:40;1.40;;;0.28;;
34960;SDS011;30789;52.030;7.110;2022-07-06T14:10:07;1.10;;;0.17;;
34960;SDS011;30789;52.030;7.110;2022-07-06T14:12:34;0.05;;;0.05;;
34960;SDS011;30789;52.030;7.110;2022-07-06T14:15:01;0.98;;;0.40;;
34960;SDS011;30789;52.030;7.110;2022-07-06T14:17:27;0.20;;;0.20;;
34960;SDS011;30789;52.030;7.110;2022-07-06T14:19:55;0.28;;;0.15;;
34960;SDS011;30789;52.030;7.110;2022-07-06T14:22:22;0.40;;;0.20;;
34960;SDS011;30789;52.030;7.110;2022-07-06T14:24:48;1.13;;;0.20;;
34960;SDS011;30789;52.030;7.110;2022-07-06T14:27:15;0.88;;;0.30;;
34960;SDS011;30789;52.030;7.110;2022-07-06T14:29:41;0.77;;;0.20;;
34960;SDS011;30789;52.030;7.110;2022-07-06T14:32:08;1.85;;;0.30;;
34960;SDS011;30789;52.030;7.110;2022-07-06T14:34:34;2.88;;;0.60;;
34960;SDS011;30789;52.030;7.110;2022-07-06T14:37:02;2.20;;;0.20;;
34960;SDS011;30789;52.030;7.110;2022-07-06T14:39:29;0.90;;;0.28;;
34960;SDS011;30789;52.030;7.110;2022-07-06T14:41:56;1.75;;;0.20;;
34960;SDS011;30789;52.030;7.110;2022-07-06T14:44:23;0.40;;;0.30;;
34960;SDS011;30789;52.030;7.110;2022-07-06T14:46:49;4.30;;;0.85;;
34960;SDS011;30789;52.030;7.110;2022-07-06T14:49:16;0.70;;;0.30;;
34960;SDS011;30789;52.030;7.110;2022-07-06T14:51:42;0.10;;;0.10;;
34960;SDS011;30789;52.030;7.110;2022-07-06T14:54:10;0.73;;;0.20;;
34960;SDS011;30789;52.030;7.110;2022-07-06T14:56:37;1.58;;;0.30;;